Terminal Aerodrome Forecast
Issued by NWS Duluth, MN

Home | Current Version | Previous Version | Text Only | Print | Product List | Glossary On
Versions: 1 2 3 4 5 6 7 8 9 10 11 12 13 14 15 16 17 18 19 20 21 22 23 24
000
FTUS43 KDLH 291726
TAFINL
TAF
KINL 291726Z 2918/3018 30012KT P6SM VCSH SCT010 BKN025
      TEMPO 2918/2922 -RA BKN012
     FM292200 29012G20KT P6SM SCT018 BKN035
     FM300300 25006KT P6SM SCT040
     FM301400 27010KT P6SM FEW050=

USA.gov is the U.S. government's official web portal to all federal, state and local government web resources and services.